Time;durP1;ratioP1;P1;durP2;ratioP2;P2;SDS_P1;SDS_P2;PMS_P1;PMS_P2;Temp;Humidity;BMP_temperature;BMP_pressure;BME280_temperature;BME280_humidity;BME280_pressure;Samples;Min_cycle;Max_cycle;Signal;HPM_P1;HPM_P2
2021/12/22 00:03:59;;;;;;;7.20;4.30;;;;;;;;;;8277395;28;20029;-62
2021/12/22 00:07:59;;;;;;;9.48;5.07;;;;;;;;;;8281681;28;20053;-62
2021/12/22 00:11:59;;;;;;;12.00;5.00;;;;;;;;;;8280862;28;20586;-63
2021/12/22 00:15:59;;;;;;;6.97;4.43;;;;;;;;;;8281149;28;20073;-62
2021/12/22 00:19:59;;;;;;;6.95;4.47;;;;;;;;;;8281438;28;20112;-62
2021/12/22 00:24:00;;;;;;;8.63;4.15;;;;;;;;;;8282305;28;20018;-62
2021/12/22 00:28:00;;;;;;;8.35;4.65;;;;;;;;;;8277053;28;20025;-62
2021/12/22 00:32:11;;;;;;;5.78;4.00;;;;;;;;;;8278264;28;20333;-62
2021/12/22 00:36:11;;;;;;;8.68;4.28;;;;;;;;;;8277865;28;20565;-62
2021/12/22 00:40:12;;;;;;;5.82;3.97;;;;;;;;;;8276672;28;20438;-62
2021/12/22 00:44:13;;;;;;;6.05;3.72;;;;;;;;;;8281785;28;20033;-62
2021/12/22 00:48:13;;;;;;;7.97;4.57;;;;;;;;;;8276579;28;20117;-62
2021/12/22 00:52:14;;;;;;;10.10;4.95;;;;;;;;;;8276727;28;20627;-62
2021/12/22 00:56:14;;;;;;;10.98;4.07;;;;;;;;;;8279765;28;20871;-62
2021/12/22 01:00:15;;;;;;;9.50;4.72;;;;;;;;;;8277498;28;20786;-63
2021/12/22 01:04:16;;;;;;;7.85;4.28;;;;;;;;;;8281773;28;20431;-62
2021/12/22 01:08:16;;;;;;;7.85;4.38;;;;;;;;;;8272956;28;20838;-62
2021/12/22 01:12:17;;;;;;;5.30;4.07;;;;;;;;;;8278517;28;20033;-62
2021/12/22 01:16:17;;;;;;;7.57;4.45;;;;;;;;;;8281416;28;21400;-62
2021/12/22 01:20:31;;;;;;;7.57;4.10;;;;;;;;;;8285795;28;20068;-62
2021/12/22 01:24:33;;;;;;;7.67;4.30;;;;;;;;;;8282967;28;20353;-62
2021/12/22 01:28:41;;;;;;;9.00;4.50;;;;;;;;;;8284240;28;20841;-63
2021/12/22 01:32:42;;;;;;;6.78;4.20;;;;;;;;;;8286991;28;20048;-62
2021/12/22 01:36:42;;;;;;;9.63;4.32;;;;;;;;;;8290082;28;20753;-62
2021/12/22 01:40:43;;;;;;;9.13;4.65;;;;;;;;;;8293328;28;20044;-62
2021/12/22 01:49:12;;;;;;;7.15;4.20;;;;;;;;;;8294790;28;20033;-62
2021/12/22 01:53:19;;;;;;;7.05;4.00;;;;;;;;;;8288848;28;20029;-62
2021/12/22 01:57:19;;;;;;;7.32;3.85;;;;;;;;;;8290425;28;20195;-62
2021/12/22 02:01:20;;;;;;;6.65;3.92;;;;;;;;;;8292230;28;20046;-62
2021/12/22 02:05:20;;;;;;;5.82;3.90;;;;;;;;;;8291094;28;20041;-62
2021/12/22 02:09:49;;;;;;;7.03;3.65;;;;;;;;;;8292795;28;20445;-62
2021/12/22 02:13:58;;;;;;;4.70;3.17;;;;;;;;;;8288241;28;21003;-62
2021/12/22 02:18:01;;;;;;;6.80;3.78;;;;;;;;;;8289346;28;20045;-62
2021/12/22 02:22:07;;;;;;;4.90;3.67;;;;;;;;;;8291272;28;20081;-62
2021/12/22 02:26:13;;;;;;;10.55;5.55;;;;;;;;;;8289187;28;20145;-62
2021/12/22 02:30:23;;;;;;;25.48;11.05;;;;;;;;;;8291435;28;20029;-62
2021/12/22 02:34:23;;;;;;;18.58;7.80;;;;;;;;;;8290274;28;21064;-63
2021/12/22 02:38:23;;;;;;;11.82;5.30;;;;;;;;;;8289455;28;20049;-62
2021/12/22 02:42:27;;;;;;;10.30;5.07;;;;;;;;;;8286712;28;20026;-62
2021/12/22 02:46:31;;;;;;;13.20;5.45;;;;;;;;;;8288820;28;20184;-62
2021/12/22 02:50:36;;;;;;;9.82;4.88;;;;;;;;;;8286130;28;20029;-62
2021/12/22 02:54:43;;;;;;;5.78;3.88;;;;;;;;;;8289914;28;20064;-62
2021/12/22 03:02:58;;;;;;;6.80;4.07;;;;;;;;;;8285472;28;20038;-62
2021/12/22 03:07:03;;;;;;;7.95;3.80;;;;;;;;;;8289072;28;20610;-62
2021/12/22 03:11:03;;;;;;;7.63;4.40;;;;;;;;;;8287670;28;20119;-62
2021/12/22 03:15:05;;;;;;;6.85;3.88;;;;;;;;;;8288575;28;20029;-63
2021/12/22 03:19:05;;;;;;;5.32;3.70;;;;;;;;;;8289668;28;20064;-62
2021/12/22 03:23:05;;;;;;;6.78;3.53;;;;;;;;;;8291142;28;20032;-62
2021/12/22 03:27:07;;;;;;;8.23;4.07;;;;;;;;;;8290802;28;20024;-62
2021/12/22 03:31:07;;;;;;;7.30;4.15;;;;;;;;;;8289344;28;20049;-62
2021/12/22 03:35:08;;;;;;;7.63;4.35;;;;;;;;;;8286035;28;20030;-62
2021/12/22 03:39:09;;;;;;;9.32;3.83;;;;;;;;;;8285393;28;20029;-63
2021/12/22 03:43:10;;;;;;;8.23;4.50;;;;;;;;;;8288192;28;20025;-62
2021/12/22 03:47:10;;;;;;;8.05;4.63;;;;;;;;;;8289956;28;20219;-62
2021/12/22 03:51:10;;;;;;;9.48;4.13;;;;;;;;;;8289629;28;20037;-62
2021/12/22 03:55:11;;;;;;;7.00;4.18;;;;;;;;;;8287878;28;20029;-63
2021/12/22 03:59:11;;;;;;;8.93;3.83;;;;;;;;;;8286807;28;20071;-62
2021/12/22 04:03:17;;;;;;;4.80;3.78;;;;;;;;;;8287913;28;20033;-62
2021/12/22 04:07:17;;;;;;;8.43;4.43;;;;;;;;;;8286431;28;20279;-62
2021/12/22 04:11:18;;;;;;;8.77;5.25;;;;;;;;;;8288979;28;20034;-62
2021/12/22 04:15:18;;;;;;;8.57;4.93;;;;;;;;;;8284538;28;20033;-63
2021/12/22 04:19:19;;;;;;;11.00;5.57;;;;;;;;;;8285031;28;20025;-62
2021/12/22 04:23:19;;;;;;;9.10;5.10;;;;;;;;;;8289809;28;20341;-62
2021/12/22 04:27:19;;;;;;;10.32;4.68;;;;;;;;;;8285326;28;20268;-62
2021/12/22 04:31:19;;;;;;;10.30;4.82;;;;;;;;;;8285203;28;20333;-62
2021/12/22 04:35:19;;;;;;;8.90;4.72;;;;;;;;;;8285995;28;20770;-62
2021/12/22 04:39:20;;;;;;;5.40;4.00;;;;;;;;;;8287225;28;20028;-62
2021/12/22 04:43:20;;;;;;;8.60;4.72;;;;;;;;;;8286776;28;20059;-62
2021/12/22 04:47:20;;;;;;;7.88;5.10;;;;;;;;;;8283391;28;20291;-62
2021/12/22 04:51:29;;;;;;;5.60;4.07;;;;;;;;;;8285121;28;20727;-62
2021/12/22 04:55:30;;;;;;;8.75;4.65;;;;;;;;;;8283250;28;20031;-62
2021/12/22 04:59:30;;;;;;;6.72;4.38;;;;;;;;;;8284709;28;20021;-63
2021/12/22 05:03:30;;;;;;;11.73;4.70;;;;;;;;;;8281201;28;20036;-62
2021/12/22 05:07:31;;;;;;;8.43;4.33;;;;;;;;;;8285390;28;20043;-62
2021/12/22 05:11:31;;;;;;;7.78;4.30;;;;;;;;;;8285002;28;20284;-62
2021/12/22 05:15:38;;;;;;;9.32;4.50;;;;;;;;;;8285946;28;20036;-63
2021/12/22 05:19:38;;;;;;;8.30;5.07;;;;;;;;;;8286757;28;20444;-62
2021/12/22 05:23:38;;;;;;;9.30;4.88;;;;;;;;;;8287745;28;20022;-62
2021/12/22 05:27:39;;;;;;;12.55;6.07;;;;;;;;;;8284970;28;20033;-62
2021/12/22 05:31:39;;;;;;;17.30;6.75;;;;;;;;;;8285674;28;20034;-62
2021/12/22 05:35:39;;;;;;;9.90;5.78;;;;;;;;;;8287400;28;20034;-62
2021/12/22 05:39:40;;;;;;;10.98;6.53;;;;;;;;;;8289166;28;20033;-62
2021/12/22 05:43:40;;;;;;;12.77;6.55;;;;;;;;;;8285029;28;20179;-62
2021/12/22 05:47:40;;;;;;;8.77;5.78;;;;;;;;;;8283902;28;20910;-62
2021/12/22 05:51:40;;;;;;;10.88;5.25;;;;;;;;;;8286556;28;20021;-62
2021/12/22 05:55:40;;;;;;;9.47;5.13;;;;;;;;;;8285078;28;20033;-62
2021/12/22 05:59:41;;;;;;;13.75;5.82;;;;;;;;;;8284887;28;20287;-63
2021/12/22 06:03:41;;;;;;;10.65;5.40;;;;;;;;;;8283677;28;20025;-63
2021/12/22 06:07:41;;;;;;;12.25;6.10;;;;;;;;;;8283183;28;20080;-62
2021/12/22 06:11:41;;;;;;;9.90;5.57;;;;;;;;;;8285986;28;20021;-63
2021/12/22 06:15:41;;;;;;;8.00;5.03;;;;;;;;;;8283431;28;20296;-63
2021/12/22 06:19:42;;;;;;;11.90;5.97;;;;;;;;;;8287356;28;20031;-63
2021/12/22 06:23:42;;;;;;;10.43;5.82;;;;;;;;;;8291479;28;20083;-62
2021/12/22 06:27:42;;;;;;;7.72;4.82;;;;;;;;;;8289745;28;20354;-63
2021/12/22 06:31:42;;;;;;;10.15;5.80;;;;;;;;;;8290189;28;20275;-62
2021/12/22 06:35:45;;;;;;;7.90;5.50;;;;;;;;;;8290788;28;20018;-63
2021/12/22 06:39:45;;;;;;;7.43;5.10;;;;;;;;;;8291171;28;20034;-63
2021/12/22 06:43:45;;;;;;;9.00;5.20;;;;;;;;;;8289530;28;20088;-62
2021/12/22 06:47:45;;;;;;;7.53;5.18;;;;;;;;;;8284985;28;20049;-62
2021/12/22 06:51:46;;;;;;;7.68;4.88;;;;;;;;;;8286041;28;20454;-62
2021/12/22 06:55:46;;;;;;;9.80;5.00;;;;;;;;;;8283274;28;20148;-62
2021/12/22 06:59:46;;;;;;;9.05;5.15;;;;;;;;;;8282517;28;20083;-62
2021/12/22 07:03:46;;;;;;;8.57;5.32;;;;;;;;;;8281620;28;20469;-62
2021/12/22 07:07:47;;;;;;;7.45;4.65;;;;;;;;;;8283304;28;20367;-62
2021/12/22 07:11:47;;;;;;;7.55;4.78;;;;;;;;;;8280634;28;20793;-62
2021/12/22 07:15:47;;;;;;;9.98;5.00;;;;;;;;;;8281212;28;20487;-63
2021/12/22 07:19:47;;;;;;;7.32;5.18;;;;;;;;;;8281835;28;20707;-62
2021/12/22 07:23:47;;;;;;;6.97;4.88;;;;;;;;;;8280833;28;20497;-62
2021/12/22 07:27:48;;;;;;;9.13;5.68;;;;;;;;;;8286629;28;20269;-63
2021/12/22 07:31:48;;;;;;;14.32;7.60;;;;;;;;;;8285394;28;20708;-62
2021/12/22 07:35:59;;;;;;;10.75;7.20;;;;;;;;;;8280882;28;20060;-63
2021/12/22 07:39:59;;;;;;;10.75;6.88;;;;;;;;;;8281618;28;20085;-62
2021/12/22 07:43:59;;;;;;;10.00;5.88;;;;;;;;;;8282459;28;20124;-62
2021/12/22 07:47:59;;;;;;;12.15;6.45;;;;;;;;;;8280255;28;20029;-62
2021/12/22 07:52:00;;;;;;;9.57;5.55;;;;;;;;;;8281756;28;20048;-62
2021/12/22 07:56:00;;;;;;;7.93;5.45;;;;;;;;;;8279463;28;20033;-62
2021/12/22 08:00:00;;;;;;;8.23;5.43;;;;;;;;;;8280394;28;20040;-62
2021/12/22 08:04:00;;;;;;;10.88;5.90;;;;;;;;;;8280516;28;20052;-62
2021/12/22 08:08:01;;;;;;;6.25;5.00;;;;;;;;;;8277988;28;20268;-62
2021/12/22 08:12:04;;;;;;;8.68;5.85;;;;;;;;;;8283441;28;20280;-62
2021/12/22 08:16:05;;;;;;;9.95;6.00;;;;;;;;;;8279642;28;20545;-62
2021/12/22 08:20:05;;;;;;;8.35;5.32;;;;;;;;;;8282792;28;20021;-62
2021/12/22 08:24:06;;;;;;;11.68;5.95;;;;;;;;;;8283185;28;20030;-62
2021/12/22 08:28:06;;;;;;;10.70;5.50;;;;;;;;;;8281011;28;20084;-62
2021/12/22 08:32:06;;;;;;;13.88;7.63;;;;;;;;;;8278266;28;20037;-62
2021/12/22 08:40:25;;;;;;;14.10;9.05;;;;;;;;;;8279977;28;20045;-63
2021/12/22 08:44:26;;;;;;;14.13;8.27;;;;;;;;;;8278257;28;20024;-63
2021/12/22 08:48:26;;;;;;;13.50;8.48;;;;;;;;;;8274218;28;20180;-63
2021/12/22 08:52:27;;;;;;;15.05;8.75;;;;;;;;;;8282131;28;20065;-63
2021/12/22 08:56:28;;;;;;;16.10;10.10;;;;;;;;;;8280009;28;20029;-63
2021/12/22 09:00:28;;;;;;;14.70;8.70;;;;;;;;;;8279364;28;20321;-63
2021/12/22 09:04:28;;;;;;;19.85;10.68;;;;;;;;;;8279806;28;20532;-63
2021/12/22 09:08:28;;;;;;;16.00;10.20;;;;;;;;;;8280304;28;20596;-62
2021/12/22 09:12:29;;;;;;;35.03;15.65;;;;;;;;;;8279030;28;20729;-63
2021/12/22 09:16:30;;;;;;;22.75;13.55;;;;;;;;;;8276311;28;20269;-63
2021/12/22 09:20:30;;;;;;;21.38;12.73;;;;;;;;;;8280548;28;20025;-63
2021/12/22 09:24:30;;;;;;;22.05;12.52;;;;;;;;;;8279932;28;20030;-62
2021/12/22 09:28:31;;;;;;;21.85;13.20;;;;;;;;;;8278485;28;20382;-63
2021/12/22 09:32:31;;;;;;;22.30;12.95;;;;;;;;;;8279974;28;20139;-63
2021/12/22 09:36:31;;;;;;;17.77;11.63;;;;;;;;;;8280197;28;20033;-64
2021/12/22 09:40:32;;;;;;;26.50;12.90;;;;;;;;;;8277978;28;20025;-62
2021/12/22 09:44:37;;;;;;;16.48;10.82;;;;;;;;;;8279640;28;20025;-63
2021/12/22 09:52:57;;;;;;;20.20;11.25;;;;;;;;;;8283224;28;20060;-63
2021/12/22 09:56:57;;;;;;;21.35;13.00;;;;;;;;;;8283441;28;20493;-63
2021/12/22 10:00:58;;;;;;;22.63;12.65;;;;;;;;;;8284581;28;20038;-63
2021/12/22 10:04:59;;;;;;;24.33;13.60;;;;;;;;;;8283439;28;20589;-63
2021/12/22 10:09:02;;;;;;;20.02;12.98;;;;;;;;;;8287390;28;20024;-63
2021/12/22 10:13:09;;;;;;;21.13;12.60;;;;;;;;;;8285664;28;20318;-63
2021/12/22 10:17:12;;;;;;;24.73;16.02;;;;;;;;;;8285053;28;20041;-63
2021/12/22 10:21:21;;;;;;;29.60;15.73;;;;;;;;;;8284672;28;20030;-63
2021/12/22 10:25:23;;;;;;;34.60;19.77;;;;;;;;;;8282541;28;20039;-63
2021/12/22 10:29:29;;;;;;;26.25;15.35;;;;;;;;;;8289024;28;20025;-63
2021/12/22 10:33:29;;;;;;;27.52;14.80;;;;;;;;;;8288787;28;20037;-63
2021/12/22 10:37:34;;;;;;;22.75;13.48;;;;;;;;;;8296997;28;20051;-63
2021/12/22 10:41:35;;;;;;;25.25;14.77;;;;;;;;;;8287301;28;20117;-63
2021/12/22 10:45:35;;;;;;;28.15;17.77;;;;;;;;;;8283940;28;20062;-63
2021/12/22 10:49:37;;;;;;;23.95;14.05;;;;;;;;;;8289118;28;20044;-63
2021/12/22 10:53:42;;;;;;;22.52;13.32;;;;;;;;;;8289762;28;20040;-63
2021/12/22 10:57:45;;;;;;;23.92;14.43;;;;;;;;;;8288356;28;20052;-63
2021/12/22 11:01:56;;;;;;;26.13;14.55;;;;;;;;;;8290738;28;20037;-63
2021/12/22 11:05:56;;;;;;;24.10;14.82;;;;;;;;;;8289381;28;20028;-63
2021/12/22 11:09:56;;;;;;;26.17;15.18;;;;;;;;;;8288609;28;20025;-63
2021/12/22 11:14:04;;;;;;;22.75;14.05;;;;;;;;;;8287707;28;20017;-63
2021/12/22 11:18:07;;;;;;;25.17;14.82;;;;;;;;;;8286138;28;20278;-63
2021/12/22 11:22:14;;;;;;;22.27;14.23;;;;;;;;;;8289754;28;20021;-63
2021/12/22 11:26:15;;;;;;;21.55;13.85;;;;;;;;;;8287169;28;20030;-63
2021/12/22 11:30:15;;;;;;;20.23;12.98;;;;;;;;;;8288432;28;20131;-63
2021/12/22 11:34:16;;;;;;;29.10;14.82;;;;;;;;;;8289277;28;20056;-63
2021/12/22 11:38:17;;;;;;;24.98;14.52;;;;;;;;;;8286935;28;20029;-63
2021/12/22 11:42:20;;;;;;;23.60;15.55;;;;;;;;;;8287580;28;20560;-63
2021/12/22 11:46:25;;;;;;;22.52;14.60;;;;;;;;;;8283863;28;20033;-63
2021/12/22 11:50:32;;;;;;;21.88;14.75;;;;;;;;;;8289456;28;20021;-63
2021/12/22 11:54:32;;;;;;;21.27;14.10;;;;;;;;;;8287960;28;20029;-63
2021/12/22 11:58:32;;;;;;;23.10;14.48;;;;;;;;;;8284578;28;20025;-63
2021/12/22 12:02:33;;;;;;;24.83;14.43;;;;;;;;;;8285697;28;20040;-63
2021/12/22 12:06:45;;;;;;;20.92;13.18;;;;;;;;;;8286105;28;20032;-63
2021/12/22 12:10:46;;;;;;;25.20;14.27;;;;;;;;;;8288084;28;20060;-63
2021/12/22 12:23:28;;;;;;;22.10;13.77;;;;;;;;;;8287970;28;20052;-63
2021/12/22 12:27:46;;;;;;;19.65;13.80;;;;;;;;;;8289574;28;20024;-63
2021/12/22 12:31:46;;;;;;;22.58;13.07;;;;;;;;;;8285844;28;20165;-63
2021/12/22 12:35:51;;;;;;;20.48;14.02;;;;;;;;;;8287768;28;20183;-64
2021/12/22 12:39:55;;;;;;;20.73;13.85;;;;;;;;;;8288318;28;20782;-63
2021/12/22 12:43:56;;;;;;;20.08;13.35;;;;;;;;;;8289409;28;20022;-64
2021/12/22 12:48:15;;;;;;;24.00;14.05;;;;;;;;;;8286924;28;20038;-64
2021/12/22 12:52:19;;;;;;;20.77;13.32;;;;;;;;;;8288335;28;20727;-63
2021/12/22 12:56:21;;;;;;;23.90;12.95;;;;;;;;;;8287663;28;20364;-63
2021/12/22 13:00:23;;;;;;;21.52;14.27;;;;;;;;;;8284688;28;20497;-64
2021/12/22 13:04:29;;;;;;;22.63;13.70;;;;;;;;;;8286732;28;20033;-64
2021/12/22 13:08:31;;;;;;;21.77;13.95;;;;;;;;;;8286380;28;20022;-63
2021/12/22 13:12:48;;;;;;;24.52;13.70;;;;;;;;;;8287823;28;20152;-64
2021/12/22 13:16:48;;;;;;;25.90;14.35;;;;;;;;;;8284911;28;20029;-63
2021/12/22 13:20:49;;;;;;;24.17;14.05;;;;;;;;;;8285980;28;20033;-63
2021/12/22 13:25:03;;;;;;;23.45;14.80;;;;;;;;;;8284961;28;20435;-63
2021/12/22 13:29:04;;;;;;;;;;;;;;;;;;8291590;28;20017;-63
2021/12/22 13:33:07;;;;;;;20.85;13.48;;;;;;;;;;8289391;28;20276;-63
2021/12/22 13:37:07;;;;;;;21.13;13.25;;;;;;;;;;8292241;28;20083;-63
2021/12/22 13:41:09;;;;;;;21.63;13.55;;;;;;;;;;8293062;28;20578;-63
2021/12/22 13:45:09;;;;;;;22.15;13.65;;;;;;;;;;8291316;28;20033;-64
2021/12/22 13:49:12;;;;;;;22.42;13.77;;;;;;;;;;8293318;28;20046;-63
2021/12/22 13:53:14;;;;;;;23.70;14.70;;;;;;;;;;8290682;28;20037;-63
2021/12/22 13:57:14;;;;;;;25.50;15.07;;;;;;;;;;8291435;28;20029;-64
2021/12/22 14:01:19;;;;;;;22.17;14.70;;;;;;;;;;8292355;28;20048;-65
2021/12/22 14:05:20;;;;;;;23.15;14.35;;;;;;;;;;8290090;28;20030;-65
2021/12/22 14:09:21;;;;;;;22.25;14.23;;;;;;;;;;8291444;28;20599;-63
2021/12/22 14:13:25;;;;;;;20.50;13.80;;;;;;;;;;8292963;28;20110;-63
2021/12/22 14:17:28;;;;;;;23.25;14.40;;;;;;;;;;8290501;28;20076;-63
2021/12/22 14:21:28;;;;;;;22.35;14.38;;;;;;;;;;8288649;28;20073;-63
2021/12/22 14:25:32;;;;;;;25.70;15.52;;;;;;;;;;8289701;28;20040;-63
2021/12/22 14:29:32;;;;;;;25.88;15.35;;;;;;;;;;8289580;28;20103;-63
2021/12/22 14:33:32;;;;;;;26.90;15.90;;;;;;;;;;8287992;28;20100;-63
2021/12/22 14:37:33;;;;;;;26.67;15.70;;;;;;;;;;8291490;28;20026;-63
2021/12/22 14:41:33;;;;;;;22.17;14.70;;;;;;;;;;8289334;28;20025;-63
2021/12/22 14:45:35;;;;;;;22.52;14.75;;;;;;;;;;8289245;28;20124;-63
2021/12/22 14:49:37;;;;;;;25.40;15.45;;;;;;;;;;8294476;28;20387;-63
2021/12/22 14:53:41;;;;;;;24.13;15.05;;;;;;;;;;8287839;28;20025;-63
2021/12/22 14:57:42;;;;;;;23.60;15.48;;;;;;;;;;8289975;28;20036;-63
2021/12/22 15:01:42;;;;;;;25.52;15.25;;;;;;;;;;8289155;28;20040;-63
2021/12/22 15:05:49;;;;;;;25.90;15.25;;;;;;;;;;8291011;28;20032;-63
2021/12/22 15:09:50;;;;;;;25.08;15.23;;;;;;;;;;8311053;23;20475;-64
2021/12/22 15:13:50;;;;;;;25.70;15.48;;;;;;;;;;8289153;28;20033;-64
2021/12/22 15:17:50;;;;;;;24.20;14.27;;;;;;;;;;8288178;28;20477;-64
2021/12/22 15:21:50;;;;;;;27.60;16.05;;;;;;;;;;8288239;28;20152;-63
2021/12/22 15:25:51;;;;;;;27.92;16.35;;;;;;;;;;8287577;28;20030;-63
2021/12/22 15:29:51;;;;;;;28.45;16.45;;;;;;;;;;8288525;28;20884;-63
2021/12/22 15:33:51;;;;;;;24.98;15.85;;;;;;;;;;8286307;28;20619;-63
2021/12/22 15:37:52;;;;;;;23.35;14.90;;;;;;;;;;8286650;28;20825;-63
2021/12/22 15:41:52;;;;;;;26.25;15.27;;;;;;;;;;8286936;28;20025;-63
2021/12/22 15:45:53;;;;;;;25.92;16.95;;;;;;;;;;8287655;28;20029;-63
2021/12/22 15:49:53;;;;;;;28.00;16.67;;;;;;;;;;8287951;28;20037;-63
2021/12/22 15:53:53;;;;;;;27.67;16.33;;;;;;;;;;8287145;28;20497;-63
2021/12/22 15:57:53;;;;;;;33.78;17.67;;;;;;;;;;8287896;28;20029;-64
2021/12/22 16:01:54;;;;;;;31.38;17.10;;;;;;;;;;8285489;28;20037;-63
2021/12/22 16:05:55;;;;;;;27.15;16.83;;;;;;;;;;8287223;28;20523;-63
2021/12/22 16:09:55;;;;;;;29.85;16.50;;;;;;;;;;8287167;28;20268;-63
2021/12/22 16:13:56;;;;;;;31.00;18.30;;;;;;;;;;8286827;28;20097;-63
2021/12/22 16:17:56;;;;;;;29.05;17.95;;;;;;;;;;8285737;28;20045;-64
2021/12/22 16:21:56;;;;;;;34.15;18.25;;;;;;;;;;8287143;28;20128;-64
2021/12/22 16:25:56;;;;;;;37.13;20.42;;;;;;;;;;8286257;28;20132;-64
2021/12/22 16:29:58;;;;;;;44.17;24.05;;;;;;;;;;8286697;28;20072;-64
2021/12/22 16:33:58;;;;;;;40.97;20.90;;;;;;;;;;8284417;28;20033;-63
2021/12/22 16:37:58;;;;;;;31.25;16.60;;;;;;;;;;8286374;28;20025;-64
2021/12/22 16:41:59;;;;;;;21.77;14.40;;;;;;;;;;8285772;28;20029;-63
2021/12/22 16:45:59;;;;;;;23.83;14.15;;;;;;;;;;8284244;28;20105;-64
2021/12/22 16:49:59;;;;;;;23.25;14.60;;;;;;;;;;8285825;28;20033;-64
2021/12/22 16:53:59;;;;;;;24.23;13.57;;;;;;;;;;8286141;28;20378;-64
2021/12/22 16:58:01;;;;;;;23.77;13.88;;;;;;;;;;8283670;28;20792;-64
2021/12/22 17:02:02;;;;;;;23.50;14.63;;;;;;;;;;8282516;28;20045;-63
2021/12/22 17:06:02;;;;;;;22.20;13.80;;;;;;;;;;8284004;28;20428;-63
2021/12/22 17:10:04;;;;;;;24.23;13.93;;;;;;;;;;8278375;28;20032;-64
2021/12/22 17:14:04;;;;;;;23.65;13.45;;;;;;;;;;8281366;28;20040;-63
2021/12/22 17:18:05;;;;;;;19.50;13.57;;;;;;;;;;8280023;28;20413;-63
2021/12/22 17:22:05;;;;;;;23.67;14.13;;;;;;;;;;8281675;28;20029;-63
2021/12/22 17:26:05;;;;;;;22.20;14.40;;;;;;;;;;8280923;28;20021;-63
2021/12/22 17:30:07;;;;;;;25.77;15.23;;;;;;;;;;8280542;28;20436;-63
2021/12/22 17:34:07;;;;;;;21.58;14.10;;;;;;;;;;8279697;28;20213;-63
2021/12/22 17:38:07;;;;;;;22.70;13.25;;;;;;;;;;8280713;28;20025;-63
2021/12/22 17:42:08;;;;;;;21.73;13.30;;;;;;;;;;8278865;28;20503;-63
2021/12/22 17:46:08;;;;;;;24.42;15.07;;;;;;;;;;8279728;28;20359;-63
2021/12/22 17:50:09;;;;;;;28.52;16.10;;;;;;;;;;8280368;28;20409;-62
2021/12/22 17:54:09;;;;;;;21.80;13.88;;;;;;;;;;8279113;28;20112;-62
2021/12/22 17:58:10;;;;;;;20.85;13.07;;;;;;;;;;8280683;28;20209;-62
2021/12/22 18:02:10;;;;;;;21.42;13.30;;;;;;;;;;8279012;28;20049;-62
2021/12/22 18:06:18;;;;;;;26.42;12.57;;;;;;;;;;8280666;28;20033;-62
2021/12/22 18:10:23;;;;;;;21.50;13.05;;;;;;;;;;8279892;28;20771;-62
2021/12/22 18:14:23;;;;;;;22.35;14.05;;;;;;;;;;8281989;28;20611;-62
2021/12/22 18:18:23;;;;;;;25.65;14.48;;;;;;;;;;8285548;28;20029;-62
2021/12/22 18:22:23;;;;;;;23.15;13.98;;;;;;;;;;8285922;28;20076;-62
2021/12/22 18:26:24;;;;;;;24.45;14.68;;;;;;;;;;8285523;28;20083;-62
2021/12/22 18:30:24;;;;;;;22.95;13.77;;;;;;;;;;8285942;28;20038;-62
2021/12/22 18:34:28;;;;;;;21.88;13.38;;;;;;;;;;8285587;28;20113;-62
2021/12/22 18:38:30;;;;;;;24.35;13.27;;;;;;;;;;8286630;28;20168;-62
2021/12/22 18:42:30;;;;;;;25.02;13.90;;;;;;;;;;8284970;28;20032;-62
2021/12/22 18:46:31;;;;;;;23.25;13.35;;;;;;;;;;8283548;28;20570;-62
2021/12/22 18:50:31;;;;;;;22.67;13.20;;;;;;;;;;8282714;28;20041;-62
2021/12/22 18:54:32;;;;;;;31.52;16.60;;;;;;;;;;8284764;28;20026;-63
2021/12/22 18:58:32;;;;;;;34.47;18.15;;;;;;;;;;8284567;28;20051;-62
2021/12/22 19:02:32;;;;;;;35.50;17.48;;;;;;;;;;8283125;28;20160;-62
2021/12/22 19:06:33;;;;;;;29.38;15.32;;;;;;;;;;8284378;28;20444;-61
2021/12/22 19:10:33;;;;;;;25.52;14.73;;;;;;;;;;8285369;28;20473;-62
2021/12/22 19:14:33;;;;;;;24.90;13.20;;;;;;;;;;8285206;28;20029;-62
2021/12/22 19:18:33;;;;;;;25.35;14.65;;;;;;;;;;8283275;28;20281;-61
2021/12/22 19:22:33;;;;;;;29.38;15.52;;;;;;;;;;8284963;28;20572;-61
2021/12/22 19:26:34;;;;;;;26.95;14.95;;;;;;;;;;8284155;28;20021;-62
2021/12/22 19:30:34;;;;;;;32.15;17.13;;;;;;;;;;8282600;28;20116;-62
2021/12/22 19:34:35;;;;;;;28.80;15.10;;;;;;;;;;8285265;28;20022;-62
2021/12/22 19:38:35;;;;;;;27.55;14.52;;;;;;;;;;8282129;28;20049;-62
2021/12/22 19:42:35;;;;;;;29.25;14.05;;;;;;;;;;8282677;28;20103;-62
2021/12/22 19:46:35;;;;;;;29.02;15.32;;;;;;;;;;8282888;28;20715;-62
2021/12/22 19:50:35;;;;;;;34.40;16.63;;;;;;;;;;8282893;28;20497;-62
2021/12/22 19:54:36;;;;;;;27.88;16.08;;;;;;;;;;8283021;28;20453;-62
2021/12/22 19:58:36;;;;;;;35.88;17.10;;;;;;;;;;8283248;28;20557;-62
2021/12/22 20:02:36;;;;;;;30.15;15.13;;;;;;;;;;8281244;28;20095;-61
2021/12/22 20:06:37;;;;;;;28.00;13.98;;;;;;;;;;8282913;28;20029;-62
2021/12/22 20:10:37;;;;;;;27.10;13.63;;;;;;;;;;8282477;28;20260;-62
2021/12/22 20:14:37;;;;;;;27.27;13.80;;;;;;;;;;8281580;28;20587;-62
2021/12/22 20:18:37;;;;;;;26.73;14.05;;;;;;;;;;8281169;28;20374;-62
2021/12/22 20:22:38;;;;;;;21.42;13.05;;;;;;;;;;8283135;28;20033;-62
2021/12/22 20:26:38;;;;;;;26.27;13.80;;;;;;;;;;8281094;28;20029;-62
2021/12/22 20:30:38;;;;;;;21.42;14.15;;;;;;;;;;8278092;28;20037;-62
2021/12/22 20:34:39;;;;;;;29.33;15.97;;;;;;;;;;8279760;28;20030;-62
2021/12/22 20:38:39;;;;;;;31.17;16.75;;;;;;;;;;8281102;28;20268;-62
2021/12/22 20:42:39;;;;;;;33.88;15.75;;;;;;;;;;8281482;28;20108;-62
2021/12/22 20:46:40;;;;;;;26.02;15.35;;;;;;;;;;8279769;28;20491;-63
2021/12/22 20:50:40;;;;;;;27.15;15.43;;;;;;;;;;8281661;28;20029;-62
2021/12/22 20:54:40;;;;;;;25.92;13.93;;;;;;;;;;8282634;28;20390;-63
2021/12/22 20:58:41;;;;;;;24.45;13.68;;;;;;;;;;8279796;28;20521;-62
2021/12/22 21:02:41;;;;;;;21.83;13.73;;;;;;;;;;8279399;28;20568;-62
2021/12/22 21:06:43;;;;;;;20.48;11.95;;;;;;;;;;8280812;28;20061;-62
2021/12/22 21:10:44;;;;;;;21.58;12.65;;;;;;;;;;8280335;28;20575;-62
2021/12/22 21:14:44;;;;;;;24.20;14.55;;;;;;;;;;8281543;28;20022;-62
2021/12/22 21:18:45;;;;;;;26.20;13.18;;;;;;;;;;8279451;28;20604;-62
2021/12/22 21:22:48;;;;;;;23.83;14.07;;;;;;;;;;8280663;28;20500;-62
2021/12/22 21:26:48;;;;;;;23.58;13.52;;;;;;;;;;8280592;28;20094;-62
2021/12/22 21:30:48;;;;;;;26.83;15.15;;;;;;;;;;8280104;28;20124;-62
2021/12/22 21:34:49;;;;;;;30.00;16.20;;;;;;;;;;8277227;28;20036;-62
2021/12/22 21:38:49;;;;;;;28.73;16.33;;;;;;;;;;8281064;28;20032;-62
2021/12/22 21:42:51;;;;;;;28.45;15.40;;;;;;;;;;8278475;28;20336;-62
2021/12/22 21:46:52;;;;;;;27.92;15.00;;;;;;;;;;8275425;28;20029;-62
2021/12/22 21:50:52;;;;;;;28.30;15.50;;;;;;;;;;8286874;28;20021;-62
2021/12/22 21:54:52;;;;;;;25.25;15.95;;;;;;;;;;8286353;28;20040;-62
2021/12/22 21:58:52;;;;;;;27.42;14.48;;;;;;;;;;8287179;28;20894;-62
2021/12/22 22:02:53;;;;;;;28.95;15.38;;;;;;;;;;8284969;28;20331;-62
2021/12/22 22:06:53;;;;;;;29.63;15.63;;;;;;;;;;8286428;28;20025;-63
2021/12/22 22:10:53;;;;;;;27.92;15.27;;;;;;;;;;8285921;28;20045;-62
2021/12/22 22:14:53;;;;;;;25.63;14.48;;;;;;;;;;8286107;28;20025;-62
2021/12/22 22:18:55;;;;;;;25.92;14.50;;;;;;;;;;8284666;28;20801;-63
2021/12/22 22:22:55;;;;;;;24.90;14.15;;;;;;;;;;8287358;28;20065;-62
2021/12/22 22:26:55;;;;;;;26.83;14.57;;;;;;;;;;8284447;28;20017;-62
2021/12/22 22:30:56;;;;;;;26.85;15.38;;;;;;;;;;8284647;28;20704;-63
2021/12/22 22:34:56;;;;;;;24.95;15.10;;;;;;;;;;8285106;28;20049;-63
2021/12/22 22:38:56;;;;;;;25.52;14.77;;;;;;;;;;8284362;28;20036;-62
2021/12/22 22:42:56;;;;;;;25.25;13.88;;;;;;;;;;8285623;28;20635;-63
2021/12/22 22:46:56;;;;;;;24.02;14.35;;;;;;;;;;8283766;28;20033;-63
2021/12/22 22:50:56;;;;;;;27.73;14.65;;;;;;;;;;8285867;28;21562;-63
2021/12/22 22:54:57;;;;;;;26.73;14.57;;;;;;;;;;8285705;28;21677;-63
2021/12/22 22:58:57;;;;;;;24.60;14.20;;;;;;;;;;8284066;28;20068;-63
2021/12/22 23:02:59;;;;;;;25.08;13.75;;;;;;;;;;8283466;28;20434;-63
2021/12/22 23:06:59;;;;;;;27.55;13.85;;;;;;;;;;8285370;28;20341;-62
2021/12/22 23:10:59;;;;;;;24.92;13.90;;;;;;;;;;8283380;28;20379;-63
2021/12/22 23:15:00;;;;;;;23.80;14.10;;;;;;;;;;8284475;28;20203;-63
2021/12/22 23:19:00;;;;;;;25.95;14.50;;;;;;;;;;8283472;28;20383;-62
2021/12/22 23:23:00;;;;;;;23.58;14.07;;;;;;;;;;8283227;28;20144;-62
2021/12/22 23:27:01;;;;;;;23.58;14.50;;;;;;;;;;8283167;28;20025;-63
2021/12/22 23:31:03;;;;;;;24.23;14.10;;;;;;;;;;8282924;28;20068;-63
2021/12/22 23:35:07;;;;;;;27.40;15.23;;;;;;;;;;8283569;28;20025;-62
2021/12/22 23:51:49;;;;;;;31.00;16.90;;;;;;;;;;8284413;28;20068;-62
2021/12/22 23:55:49;;;;;;;35.97;19.42;;;;;;;;;;8282243;28;20033;-62
2021/12/22 23:59:49;;;;;;;35.67;19.42;;;;;;;;;;8281967;28;20371;-62
